sensor_id;sensor_type;location;lat;lon;timestamp;P1;durP1;ratioP1;P2;durP2;ratioP2
70588;SDS011;58152;49.202;18.744;2022-12-29T00:01:30;31.58;;;18.48;;
70588;SDS011;58152;49.202;18.744;2022-12-29T00:03:58;28.92;;;19.75;;
70588;SDS011;58152;49.202;18.744;2022-12-29T00:06:24;27.45;;;18.17;;
70588;SDS011;58152;49.202;18.744;2022-12-29T00:08:49;32.50;;;19.58;;
70588;SDS011;58152;49.202;18.744;2022-12-29T00:11:19;35.00;;;19.90;;
70588;SDS011;58152;49.202;18.744;2022-12-29T00:13:46;32.60;;;20.10;;
70588;SDS011;58152;49.202;18.744;2022-12-29T00:16:31;26.23;;;18.00;;
70588;SDS011;58152;49.202;18.744;2022-12-29T00:18:59;27.77;;;17.77;;
70588;SDS011;58152;49.202;18.744;2022-12-29T00:21:26;33.42;;;20.38;;
70588;SDS011;58152;49.202;18.744;2022-12-29T00:24:14;33.35;;;18.80;;
70588;SDS011;58152;49.202;18.744;2022-12-29T00:26:47;28.77;;;19.08;;
70588;SDS011;58152;49.202;18.744;2022-12-29T00:29:36;29.98;;;18.17;;
70588;SDS011;58152;49.202;18.744;2022-12-29T00:32:20;30.35;;;18.10;;
70588;SDS011;58152;49.202;18.744;2022-12-29T00:35:04;27.77;;;17.60;;
70588;SDS011;58152;49.202;18.744;2022-12-29T00:37:33;30.27;;;17.10;;
70588;SDS011;58152;49.202;18.744;2022-12-29T00:40:17;30.25;;;18.52;;
70588;SDS011;58152;49.202;18.744;2022-12-29T00:43:01;27.05;;;17.83;;
70588;SDS011;58152;49.202;18.744;2022-12-29T00:45:45;26.95;;;17.00;;
70588;SDS011;58152;49.202;18.744;2022-12-29T00:48:11;25.35;;;16.52;;
70588;SDS011;58152;49.202;18.744;2022-12-29T00:50:36;29.00;;;18.25;;
70588;SDS011;58152;49.202;18.744;2022-12-29T00:53:02;27.52;;;17.05;;
70588;SDS011;58152;49.202;18.744;2022-12-29T00:55:27;30.40;;;19.30;;
70588;SDS011;58152;49.202;18.744;2022-12-29T00:57:53;28.05;;;19.20;;
70588;SDS011;58152;49.202;18.744;2022-12-29T01:00:18;29.88;;;18.73;;
70588;SDS011;58152;49.202;18.744;2022-12-29T01:02:44;31.65;;;19.65;;
70588;SDS011;58152;49.202;18.744;2022-12-29T01:05:09;28.23;;;17.40;;
70588;SDS011;58152;49.202;18.744;2022-12-29T01:07:35;23.50;;;16.75;;
70588;SDS011;58152;49.202;18.744;2022-12-29T01:10:00;27.15;;;17.33;;
70588;SDS011;58152;49.202;18.744;2022-12-29T01:12:34;31.83;;;17.63;;
70588;SDS011;58152;49.202;18.744;2022-12-29T01:15:07;28.77;;;17.33;;
70588;SDS011;58152;49.202;18.744;2022-12-29T01:17:34;29.23;;;18.92;;
70588;SDS011;58152;49.202;18.744;2022-12-29T01:20:00;28.80;;;19.13;;
70588;SDS011;58152;49.202;18.744;2022-12-29T01:22:25;30.08;;;18.70;;
70588;SDS011;58152;49.202;18.744;2022-12-29T01:24:51;29.38;;;16.25;;
70588;SDS011;58152;49.202;18.744;2022-12-29T01:27:16;27.40;;;16.38;;
70588;SDS011;58152;49.202;18.744;2022-12-29T01:29:42;26.65;;;17.60;;
70588;SDS011;58152;49.202;18.744;2022-12-29T01:32:07;28.45;;;17.42;;
70588;SDS011;58152;49.202;18.744;2022-12-29T01:34:32;29.13;;;18.08;;
70588;SDS011;58152;49.202;18.744;2022-12-29T01:36:58;27.52;;;18.65;;
70588;SDS011;58152;49.202;18.744;2022-12-29T01:39:23;28.73;;;18.02;;
70588;SDS011;58152;49.202;18.744;2022-12-29T01:41:49;28.00;;;17.85;;
70588;SDS011;58152;49.202;18.744;2022-12-29T01:47:21;32.00;;;18.77;;
70588;SDS011;58152;49.202;18.744;2022-12-29T01:49:52;28.17;;;18.17;;
70588;SDS011;58152;49.202;18.744;2022-12-29T01:52:20;29.40;;;17.65;;
70588;SDS011;58152;49.202;18.744;2022-12-29T01:54:48;30.00;;;18.27;;
70588;SDS011;58152;49.202;18.744;2022-12-29T01:57:21;34.63;;;19.25;;
70588;SDS011;58152;49.202;18.744;2022-12-29T01:59:55;25.17;;;16.75;;
70588;SDS011;58152;49.202;18.744;2022-12-29T02:02:25;31.02;;;19.90;;
70588;SDS011;58152;49.202;18.744;2022-12-29T02:04:51;30.58;;;19.17;;
70588;SDS011;58152;49.202;18.744;2022-12-29T02:07:21;28.88;;;18.80;;
70588;SDS011;58152;49.202;18.744;2022-12-29T02:09:50;34.13;;;22.13;;
70588;SDS011;58152;49.202;18.744;2022-12-29T02:12:18;28.15;;;19.38;;
70588;SDS011;58152;49.202;18.744;2022-12-29T02:14:45;29.38;;;18.10;;
70588;SDS011;58152;49.202;18.744;2022-12-29T02:18:00;30.83;;;19.65;;
70588;SDS011;58152;49.202;18.744;2022-12-29T02:36:43;25.35;;;16.73;;
70588;SDS011;58152;49.202;18.744;2022-12-29T02:39:30;24.10;;;16.35;;
70588;SDS011;58152;49.202;18.744;2022-12-29T02:42:30;29.15;;;17.60;;
70588;SDS011;58152;49.202;18.744;2022-12-29T02:50:36;26.67;;;17.00;;
70588;SDS011;58152;49.202;18.744;2022-12-29T02:53:06;33.38;;;18.42;;
70588;SDS011;58152;49.202;18.744;2022-12-29T02:55:34;24.73;;;17.17;;
70588;SDS011;58152;49.202;18.744;2022-12-29T02:58:19;22.92;;;16.77;;
70588;SDS011;58152;49.202;18.744;2022-12-29T03:01:02;29.95;;;17.50;;
70588;SDS011;58152;49.202;18.744;2022-12-29T03:12:20;25.40;;;15.73;;
70588;SDS011;58152;49.202;18.744;2022-12-29T03:15:14;23.27;;;15.20;;
70588;SDS011;58152;49.202;18.744;2022-12-29T03:18:06;23.15;;;15.30;;
70588;SDS011;58152;49.202;18.744;2022-12-29T03:20:39;24.02;;;15.10;;
70588;SDS011;58152;49.202;18.744;2022-12-29T03:23:19;22.33;;;14.85;;
70588;SDS011;58152;49.202;18.744;2022-12-29T03:25:47;27.00;;;16.17;;
70588;SDS011;58152;49.202;18.744;2022-12-29T03:28:21;22.77;;;15.20;;
70588;SDS011;58152;49.202;18.744;2022-12-29T03:30:49;24.95;;;15.27;;
70588;SDS011;58152;49.202;18.744;2022-12-29T03:33:17;27.38;;;16.30;;
70588;SDS011;58152;49.202;18.744;2022-12-29T03:35:46;25.65;;;16.15;;
70588;SDS011;58152;49.202;18.744;2022-12-29T03:38:17;25.33;;;15.77;;
70588;SDS011;58152;49.202;18.744;2022-12-29T03:40:50;23.10;;;14.20;;
70588;SDS011;58152;49.202;18.744;2022-12-29T03:43:20;20.17;;;13.88;;
70588;SDS011;58152;49.202;18.744;2022-12-29T03:45:46;27.73;;;18.67;;
70588;SDS011;58152;49.202;18.744;2022-12-29T03:48:12;22.15;;;13.63;;
70588;SDS011;58152;49.202;18.744;2022-12-29T03:50:37;23.92;;;15.45;;
70588;SDS011;58152;49.202;18.744;2022-12-29T03:53:03;25.05;;;16.17;;
70588;SDS011;58152;49.202;18.744;2022-12-29T03:55:28;22.00;;;14.13;;
70588;SDS011;58152;49.202;18.744;2022-12-29T03:57:54;20.13;;;13.93;;
70588;SDS011;58152;49.202;18.744;2022-12-29T04:00:19;25.05;;;14.88;;
70588;SDS011;58152;49.202;18.744;2022-12-29T04:02:44;26.17;;;15.35;;
70588;SDS011;58152;49.202;18.744;2022-12-29T04:05:10;23.05;;;14.32;;
70588;SDS011;58152;49.202;18.744;2022-12-29T04:07:38;21.65;;;13.27;;
70588;SDS011;58152;49.202;18.744;2022-12-29T04:10:12;19.83;;;13.25;;
70588;SDS011;58152;49.202;18.744;2022-12-29T04:12:52;19.58;;;13.52;;
70588;SDS011;58152;49.202;18.744;2022-12-29T04:15:20;20.35;;;13.60;;
70588;SDS011;58152;49.202;18.744;2022-12-29T04:17:54;20.60;;;13.73;;
70588;SDS011;58152;49.202;18.744;2022-12-29T04:20:34;19.63;;;13.25;;
70588;SDS011;58152;49.202;18.744;2022-12-29T04:23:35;21.20;;;12.48;;
70588;SDS011;58152;49.202;18.744;2022-12-29T04:26:02;20.15;;;14.57;;
70588;SDS011;58152;49.202;18.744;2022-12-29T04:28:28;19.90;;;13.70;;
70588;SDS011;58152;49.202;18.744;2022-12-29T04:30:54;24.08;;;13.30;;
70588;SDS011;58152;49.202;18.744;2022-12-29T04:33:22;21.55;;;12.55;;
70588;SDS011;58152;49.202;18.744;2022-12-29T04:35:48;21.67;;;14.13;;
70588;SDS011;58152;49.202;18.744;2022-12-29T04:38:20;22.42;;;13.82;;
70588;SDS011;58152;49.202;18.744;2022-12-29T04:40:48;20.23;;;13.68;;
70588;SDS011;58152;49.202;18.744;2022-12-29T04:43:15;22.95;;;14.35;;
70588;SDS011;58152;49.202;18.744;2022-12-29T04:45:47;23.00;;;14.35;;
70588;SDS011;58152;49.202;18.744;2022-12-29T04:48:13;23.20;;;15.27;;
70588;SDS011;58152;49.202;18.744;2022-12-29T04:50:41;22.42;;;14.63;;
70588;SDS011;58152;49.202;18.744;2022-12-29T04:53:10;22.38;;;14.38;;
70588;SDS011;58152;49.202;18.744;2022-12-29T04:55:40;22.38;;;13.93;;
70588;SDS011;58152;49.202;18.744;2022-12-29T04:58:21;19.55;;;13.60;;
70588;SDS011;58152;49.202;18.744;2022-12-29T05:00:52;23.92;;;13.88;;
70588;SDS011;58152;49.202;18.744;2022-12-29T05:03:20;20.70;;;12.88;;
70588;SDS011;58152;49.202;18.744;2022-12-29T05:05:52;23.73;;;15.25;;
70588;SDS011;58152;49.202;18.744;2022-12-29T05:08:28;21.58;;;13.25;;
70588;SDS011;58152;49.202;18.744;2022-12-29T05:11:08;19.42;;;13.00;;
70588;SDS011;58152;49.202;18.744;2022-12-29T05:16:48;20.63;;;13.45;;
70588;SDS011;58152;49.202;18.744;2022-12-29T05:22:58;21.77;;;13.63;;
70588;SDS011;58152;49.202;18.744;2022-12-29T05:25:39;22.45;;;14.55;;
70588;SDS011;58152;49.202;18.744;2022-12-29T05:28:08;22.90;;;14.65;;
70588;SDS011;58152;49.202;18.744;2022-12-29T05:30:38;20.88;;;13.45;;
70588;SDS011;58152;49.202;18.744;2022-12-29T05:33:04;21.98;;;15.27;;
70588;SDS011;58152;49.202;18.744;2022-12-29T05:35:31;25.38;;;15.80;;
70588;SDS011;58152;49.202;18.744;2022-12-29T05:37:57;21.85;;;14.73;;
70588;SDS011;58152;49.202;18.744;2022-12-29T05:40:23;24.75;;;14.40;;
70588;SDS011;58152;49.202;18.744;2022-12-29T05:42:48;25.13;;;15.55;;
70588;SDS011;58152;49.202;18.744;2022-12-29T05:45:15;27.17;;;16.88;;
70588;SDS011;58152;49.202;18.744;2022-12-29T05:47:40;25.95;;;16.35;;
70588;SDS011;58152;49.202;18.744;2022-12-29T05:50:06;23.55;;;14.90;;
70588;SDS011;58152;49.202;18.744;2022-12-29T05:52:32;25.42;;;15.30;;
70588;SDS011;58152;49.202;18.744;2022-12-29T05:54:57;27.58;;;16.58;;
70588;SDS011;58152;49.202;18.744;2022-12-29T05:57:22;25.15;;;15.82;;
70588;SDS011;58152;49.202;18.744;2022-12-29T05:59:48;26.00;;;15.82;;
70588;SDS011;58152;49.202;18.744;2022-12-29T06:02:13;24.92;;;15.10;;
70588;SDS011;58152;49.202;18.744;2022-12-29T06:04:39;23.00;;;14.77;;
70588;SDS011;58152;49.202;18.744;2022-12-29T06:07:04;23.55;;;15.55;;
70588;SDS011;58152;49.202;18.744;2022-12-29T06:09:30;27.60;;;15.82;;
70588;SDS011;58152;49.202;18.744;2022-12-29T06:11:55;25.52;;;15.38;;
70588;SDS011;58152;49.202;18.744;2022-12-29T06:14:23;26.10;;;16.85;;
70588;SDS011;58152;49.202;18.744;2022-12-29T06:16:48;25.85;;;17.27;;
70588;SDS011;58152;49.202;18.744;2022-12-29T06:19:14;26.50;;;15.15;;
70588;SDS011;58152;49.202;18.744;2022-12-29T06:21:39;24.20;;;13.98;;
70588;SDS011;58152;49.202;18.744;2022-12-29T06:24:05;22.30;;;14.27;;
70588;SDS011;58152;49.202;18.744;2022-12-29T06:26:30;26.92;;;15.90;;
70588;SDS011;58152;49.202;18.744;2022-12-29T06:28:56;25.27;;;15.85;;
70588;SDS011;58152;49.202;18.744;2022-12-29T06:31:21;24.85;;;15.15;;
70588;SDS011;58152;49.202;18.744;2022-12-29T06:33:47;22.80;;;13.80;;
70588;SDS011;58152;49.202;18.744;2022-12-29T06:36:12;24.17;;;15.18;;
70588;SDS011;58152;49.202;18.744;2022-12-29T06:38:38;24.17;;;15.05;;
70588;SDS011;58152;49.202;18.744;2022-12-29T06:41:03;21.65;;;14.48;;
70588;SDS011;58152;49.202;18.744;2022-12-29T06:43:29;21.30;;;14.20;;
70588;SDS011;58152;49.202;18.744;2022-12-29T06:45:55;24.25;;;15.43;;
70588;SDS011;58152;49.202;18.744;2022-12-29T06:48:21;22.48;;;14.90;;
70588;SDS011;58152;49.202;18.744;2022-12-29T06:50:46;26.23;;;15.32;;
70588;SDS011;58152;49.202;18.744;2022-12-29T06:53:14;20.75;;;14.18;;
70588;SDS011;58152;49.202;18.744;2022-12-29T06:55:41;22.80;;;14.45;;
70588;SDS011;58152;49.202;18.744;2022-12-29T06:58:09;27.17;;;15.35;;
70588;SDS011;58152;49.202;18.744;2022-12-29T07:00:37;22.10;;;14.38;;
70588;SDS011;58152;49.202;18.744;2022-12-29T07:03:02;23.08;;;13.65;;
70588;SDS011;58152;49.202;18.744;2022-12-29T07:08:31;22.35;;;12.98;;
70588;SDS011;58152;49.202;18.744;2022-12-29T07:10:56;21.30;;;13.15;;
70588;SDS011;58152;49.202;18.744;2022-12-29T07:16:13;20.88;;;12.48;;
70588;SDS011;58152;49.202;18.744;2022-12-29T07:18:44;19.80;;;12.70;;
70588;SDS011;58152;49.202;18.744;2022-12-29T07:21:10;21.48;;;12.60;;
70588;SDS011;58152;49.202;18.744;2022-12-29T07:23:35;21.70;;;14.73;;
70588;SDS011;58152;49.202;18.744;2022-12-29T07:26:01;20.17;;;12.45;;
70588;SDS011;58152;49.202;18.744;2022-12-29T07:28:37;20.35;;;12.68;;
70588;SDS011;58152;49.202;18.744;2022-12-29T07:31:21;18.65;;;12.15;;
70588;SDS011;58152;49.202;18.744;2022-12-29T07:34:00;20.63;;;12.63;;
70588;SDS011;58152;49.202;18.744;2022-12-29T07:36:31;21.92;;;12.75;;
70588;SDS011;58152;49.202;18.744;2022-12-29T07:39:02;25.73;;;13.73;;
70588;SDS011;58152;49.202;18.744;2022-12-29T07:41:29;25.10;;;14.88;;
70588;SDS011;58152;49.202;18.744;2022-12-29T07:43:55;24.55;;;13.40;;
70588;SDS011;58152;49.202;18.744;2022-12-29T07:49:26;20.20;;;12.75;;
70588;SDS011;58152;49.202;18.744;2022-12-29T07:51:51;23.65;;;13.80;;
70588;SDS011;58152;49.202;18.744;2022-12-29T07:54:17;23.10;;;12.70;;
70588;SDS011;58152;49.202;18.744;2022-12-29T07:56:47;22.02;;;13.35;;
70588;SDS011;58152;49.202;18.744;2022-12-29T07:59:18;23.02;;;13.32;;
70588;SDS011;58152;49.202;18.744;2022-12-29T08:01:43;23.60;;;13.60;;
70588;SDS011;58152;49.202;18.744;2022-12-29T08:04:08;21.58;;;12.25;;
70588;SDS011;58152;49.202;18.744;2022-12-29T08:06:34;23.40;;;12.70;;
70588;SDS011;58152;49.202;18.744;2022-12-29T08:09:00;20.77;;;13.23;;
70588;SDS011;58152;49.202;18.744;2022-12-29T08:11:33;20.27;;;13.20;;
70588;SDS011;58152;49.202;18.744;2022-12-29T08:14:09;21.05;;;12.38;;
70588;SDS011;58152;49.202;18.744;2022-12-29T08:16:47;20.98;;;13.50;;
70588;SDS011;58152;49.202;18.744;2022-12-29T08:22:13;19.98;;;13.32;;
70588;SDS011;58152;49.202;18.744;2022-12-29T08:24:39;24.85;;;13.07;;
70588;SDS011;58152;49.202;18.744;2022-12-29T08:27:06;17.63;;;12.32;;
70588;SDS011;58152;49.202;18.744;2022-12-29T08:29:54;19.45;;;13.27;;
70588;SDS011;58152;49.202;18.744;2022-12-29T08:32:20;17.50;;;11.57;;
70588;SDS011;58152;49.202;18.744;2022-12-29T08:38:05;73.00;;;42.42;;
70588;SDS011;58152;49.202;18.744;2022-12-29T08:40:31;103.70;;;63.50;;
70588;SDS011;58152;49.202;18.744;2022-12-29T08:43:02;55.97;;;33.88;;
70588;SDS011;58152;49.202;18.744;2022-12-29T08:45:41;40.88;;;23.50;;
70588;SDS011;58152;49.202;18.744;2022-12-29T08:48:30;37.10;;;19.88;;
70588;SDS011;58152;49.202;18.744;2022-12-29T08:50:56;26.92;;;16.95;;
70588;SDS011;58152;49.202;18.744;2022-12-29T08:53:29;24.95;;;14.00;;
70588;SDS011;58152;49.202;18.744;2022-12-29T08:56:18;18.90;;;11.45;;
70588;SDS011;58152;49.202;18.744;2022-12-29T09:04:54;16.42;;;10.88;;
70588;SDS011;58152;49.202;18.744;2022-12-29T09:57:38;18.63;;;11.07;;
70588;SDS011;58152;49.202;18.744;2022-12-29T10:04:51;18.42;;;12.02;;
70588;SDS011;58152;49.202;18.744;2022-12-29T10:18:16;17.33;;;10.93;;
70588;SDS011;58152;49.202;18.744;2022-12-29T10:45:14;71.10;;;46.97;;
70588;SDS011;58152;49.202;18.744;2022-12-29T10:51:20;64.93;;;39.28;;
70588;SDS011;58152;49.202;18.744;2022-12-29T10:55:07;26.27;;;18.40;;
70588;SDS011;58152;49.202;18.744;2022-12-29T10:58:32;20.95;;;13.73;;
70588;SDS011;58152;49.202;18.744;2022-12-29T11:07:34;18.50;;;12.77;;
70588;SDS011;58152;49.202;18.744;2022-12-29T11:10:22;15.20;;;10.50;;
70588;SDS011;58152;49.202;18.744;2022-12-29T11:16:56;14.55;;;9.93;;
70588;SDS011;58152;49.202;18.744;2022-12-29T11:26:21;15.10;;;9.98;;
70588;SDS011;58152;49.202;18.744;2022-12-29T11:32:21;11.60;;;9.13;;
70588;SDS011;58152;49.202;18.744;2022-12-29T11:35:18;11.73;;;8.27;;
70588;SDS011;58152;49.202;18.744;2022-12-29T11:38:34;13.77;;;8.63;;
70588;SDS011;58152;49.202;18.744;2022-12-29T11:49:08;14.52;;;9.40;;
70588;SDS011;58152;49.202;18.744;2022-12-29T15:56:47;14.63;;;10.77;;
70588;SDS011;58152;49.202;18.744;2022-12-29T16:02:24;14.05;;;10.25;;
70588;SDS011;58152;49.202;18.744;2022-12-29T16:25:38;14.45;;;10.82;;
70588;SDS011;58152;49.202;18.744;2022-12-29T16:29:01;18.77;;;13.30;;
70588;SDS011;58152;49.202;18.744;2022-12-29T16:32:02;18.90;;;12.80;;
70588;SDS011;58152;49.202;18.744;2022-12-29T16:41:38;20.80;;;14.05;;
70588;SDS011;58152;49.202;18.744;2022-12-29T16:47:29;21.95;;;14.07;;
70588;SDS011;58152;49.202;18.744;2022-12-29T16:49:55;20.70;;;14.35;;
70588;SDS011;58152;49.202;18.744;2022-12-29T16:52:37;19.35;;;14.15;;
70588;SDS011;58152;49.202;18.744;2022-12-29T16:55:03;20.80;;;13.88;;
70588;SDS011;58152;49.202;18.744;2022-12-29T16:57:30;21.25;;;14.43;;
70588;SDS011;58152;49.202;18.744;2022-12-29T17:00:05;19.88;;;14.70;;
70588;SDS011;58152;49.202;18.744;2022-12-29T17:02:32;21.63;;;15.40;;
70588;SDS011;58152;49.202;18.744;2022-12-29T17:04:59;21.80;;;15.50;;
70588;SDS011;58152;49.202;18.744;2022-12-29T17:07:25;24.33;;;17.33;;
70588;SDS011;58152;49.202;18.744;2022-12-29T17:09:55;24.90;;;17.92;;
70588;SDS011;58152;49.202;18.744;2022-12-29T17:12:30;28.63;;;17.83;;
70588;SDS011;58152;49.202;18.744;2022-12-29T17:14:59;24.20;;;16.60;;
70588;SDS011;58152;49.202;18.744;2022-12-29T17:17:44;22.83;;;16.02;;
70588;SDS011;58152;49.202;18.744;2022-12-29T17:22:41;29.55;;;17.13;;
70588;SDS011;58152;49.202;18.744;2022-12-29T17:25:10;23.60;;;16.95;;
70588;SDS011;58152;49.202;18.744;2022-12-29T17:27:44;22.60;;;16.23;;
70588;SDS011;58152;49.202;18.744;2022-12-29T17:30:14;22.77;;;16.00;;
70588;SDS011;58152;49.202;18.744;2022-12-29T17:32:42;22.58;;;15.07;;
70588;SDS011;58152;49.202;18.744;2022-12-29T17:35:13;22.65;;;14.88;;
70588;SDS011;58152;49.202;18.744;2022-12-29T17:37:43;21.63;;;15.10;;
70588;SDS011;58152;49.202;18.744;2022-12-29T17:40:15;22.25;;;14.88;;
70588;SDS011;58152;49.202;18.744;2022-12-29T17:42:43;24.80;;;15.30;;
70588;SDS011;58152;49.202;18.744;2022-12-29T17:45:14;21.73;;;14.27;;
70588;SDS011;58152;49.202;18.744;2022-12-29T17:47:42;21.70;;;14.60;;
70588;SDS011;58152;49.202;18.744;2022-12-29T17:50:14;19.92;;;14.32;;
70588;SDS011;58152;49.202;18.744;2022-12-29T17:52:41;23.45;;;15.20;;
70588;SDS011;58152;49.202;18.744;2022-12-29T17:55:15;21.70;;;16.08;;
70588;SDS011;58152;49.202;18.744;2022-12-29T17:57:43;25.23;;;18.05;;
70588;SDS011;58152;49.202;18.744;2022-12-29T18:00:16;29.52;;;19.50;;
70588;SDS011;58152;49.202;18.744;2022-12-29T18:02:43;25.05;;;17.45;;
70588;SDS011;58152;49.202;18.744;2022-12-29T18:05:21;22.83;;;15.93;;
70588;SDS011;58152;49.202;18.744;2022-12-29T18:07:50;23.52;;;15.65;;
70588;SDS011;58152;49.202;18.744;2022-12-29T18:10:24;21.30;;;15.57;;
70588;SDS011;58152;49.202;18.744;2022-12-29T18:13:18;21.25;;;15.30;;
70588;SDS011;58152;49.202;18.744;2022-12-29T18:15:49;25.40;;;17.55;;
70588;SDS011;58152;49.202;18.744;2022-12-29T18:18:27;26.73;;;17.63;;
70588;SDS011;58152;49.202;18.744;2022-12-29T18:20:54;20.55;;;15.30;;
70588;SDS011;58152;49.202;18.744;2022-12-29T18:29:47;27.15;;;17.75;;
70588;SDS011;58152;49.202;18.744;2022-12-29T18:32:15;27.20;;;17.58;;
70588;SDS011;58152;49.202;18.744;2022-12-29T18:34:44;21.75;;;15.52;;
70588;SDS011;58152;49.202;18.744;2022-12-29T18:37:12;28.73;;;18.50;;
70588;SDS011;58152;49.202;18.744;2022-12-29T18:39:40;30.42;;;20.95;;
70588;SDS011;58152;49.202;18.744;2022-12-29T18:42:30;27.23;;;19.23;;
70588;SDS011;58152;49.202;18.744;2022-12-29T18:44:55;29.45;;;20.35;;
70588;SDS011;58152;49.202;18.744;2022-12-29T18:47:23;35.72;;;24.10;;
70588;SDS011;58152;49.202;18.744;2022-12-29T18:49:49;37.88;;;25.85;;
70588;SDS011;58152;49.202;18.744;2022-12-29T18:52:22;35.88;;;24.17;;
70588;SDS011;58152;49.202;18.744;2022-12-29T18:54:47;32.95;;;22.63;;
70588;SDS011;58152;49.202;18.744;2022-12-29T18:57:15;31.80;;;21.90;;
70588;SDS011;58152;49.202;18.744;2022-12-29T19:00:10;32.10;;;20.58;;
70588;SDS011;58152;49.202;18.744;2022-12-29T19:02:38;33.75;;;22.73;;
70588;SDS011;58152;49.202;18.744;2022-12-29T19:08:05;36.15;;;22.17;;
70588;SDS011;58152;49.202;18.744;2022-12-29T19:10:31;35.10;;;22.98;;
70588;SDS011;58152;49.202;18.744;2022-12-29T19:12:57;36.00;;;24.65;;
70588;SDS011;58152;49.202;18.744;2022-12-29T19:15:30;38.08;;;24.60;;
70588;SDS011;58152;49.202;18.744;2022-12-29T19:21:53;33.47;;;21.15;;
70588;SDS011;58152;49.202;18.744;2022-12-29T19:24:22;35.83;;;24.13;;
70588;SDS011;58152;49.202;18.744;2022-12-29T19:27:11;39.58;;;24.55;;
70588;SDS011;58152;49.202;18.744;2022-12-29T19:29:57;39.65;;;24.30;;
70588;SDS011;58152;49.202;18.744;2022-12-29T19:36:25;33.70;;;22.08;;
70588;SDS011;58152;49.202;18.744;2022-12-29T19:45:47;32.90;;;22.33;;
70588;SDS011;58152;49.202;18.744;2022-12-29T19:48:35;33.08;;;22.02;;
70588;SDS011;58152;49.202;18.744;2022-12-29T19:51:02;33.45;;;22.15;;
70588;SDS011;58152;49.202;18.744;2022-12-29T19:53:36;35.80;;;22.23;;
70588;SDS011;58152;49.202;18.744;2022-12-29T19:56:02;36.03;;;23.25;;
70588;SDS011;58152;49.202;18.744;2022-12-29T19:58:29;34.25;;;22.27;;
70588;SDS011;58152;49.202;18.744;2022-12-29T20:01:18;33.38;;;22.17;;
70588;SDS011;58152;49.202;18.744;2022-12-29T20:03:47;37.05;;;23.38;;
70588;SDS011;58152;49.202;18.744;2022-12-29T20:06:13;33.15;;;22.90;;
70588;SDS011;58152;49.202;18.744;2022-12-29T20:08:42;31.92;;;22.40;;
70588;SDS011;58152;49.202;18.744;2022-12-29T20:11:26;35.45;;;23.40;;
70588;SDS011;58152;49.202;18.744;2022-12-29T20:18:17;40.95;;;23.70;;
70588;SDS011;58152;49.202;18.744;2022-12-29T20:21:11;42.25;;;25.83;;
70588;SDS011;58152;49.202;18.744;2022-12-29T20:23:49;36.70;;;24.42;;
70588;SDS011;58152;49.202;18.744;2022-12-29T20:26:23;36.63;;;25.02;;
70588;SDS011;58152;49.202;18.744;2022-12-29T20:29:32;32.95;;;22.83;;
70588;SDS011;58152;49.202;18.744;2022-12-29T20:32:26;35.72;;;23.90;;
70588;SDS011;58152;49.202;18.744;2022-12-29T20:34:54;34.53;;;23.48;;
70588;SDS011;58152;49.202;18.744;2022-12-29T20:37:19;35.67;;;23.02;;
70588;SDS011;58152;49.202;18.744;2022-12-29T20:43:10;36.60;;;23.25;;
70588;SDS011;58152;49.202;18.744;2022-12-29T20:45:37;33.83;;;23.33;;
70588;SDS011;58152;49.202;18.744;2022-12-29T20:48:13;32.95;;;23.80;;
70588;SDS011;58152;49.202;18.744;2022-12-29T20:50:51;35.97;;;22.40;;
70588;SDS011;58152;49.202;18.744;2022-12-29T20:57:04;31.33;;;21.02;;
70588;SDS011;58152;49.202;18.744;2022-12-29T20:59:49;30.27;;;20.63;;
70588;SDS011;58152;49.202;18.744;2022-12-29T21:02:38;33.10;;;22.15;;
70588;SDS011;58152;49.202;18.744;2022-12-29T21:05:08;40.03;;;25.33;;
70588;SDS011;58152;49.202;18.744;2022-12-29T21:07:33;34.95;;;23.23;;
70588;SDS011;58152;49.202;18.744;2022-12-29T21:09:59;34.72;;;22.30;;
70588;SDS011;58152;49.202;18.744;2022-12-29T21:12:30;35.22;;;23.80;;
70588;SDS011;58152;49.202;18.744;2022-12-29T21:15:08;31.10;;;21.40;;
70588;SDS011;58152;49.202;18.744;2022-12-29T21:22:09;32.47;;;20.85;;
70588;SDS011;58152;49.202;18.744;2022-12-29T21:24:34;32.95;;;21.70;;
70588;SDS011;58152;49.202;18.744;2022-12-29T21:27:17;30.90;;;21.23;;
70588;SDS011;58152;49.202;18.744;2022-12-29T21:53:31;34.00;;;22.63;;
70588;SDS011;58152;49.202;18.744;2022-12-29T21:56:32;40.03;;;24.85;;
70588;SDS011;58152;49.202;18.744;2022-12-29T21:59:30;32.92;;;23.23;;
70588;SDS011;58152;49.202;18.744;2022-12-29T22:05:41;30.42;;;21.00;;
70588;SDS011;58152;49.202;18.744;2022-12-29T22:34:32;36.10;;;23.90;;
70588;SDS011;58152;49.202;18.744;2022-12-29T22:36:57;36.38;;;23.33;;
70588;SDS011;58152;49.202;18.744;2022-12-29T22:39:25;36.20;;;22.48;;
70588;SDS011;58152;49.202;18.744;2022-12-29T22:41:53;38.60;;;24.88;;
70588;SDS011;58152;49.202;18.744;2022-12-29T22:44:42;36.95;;;23.10;;
70588;SDS011;58152;49.202;18.744;2022-12-29T22:47:30;38.13;;;22.20;;
70588;SDS011;58152;49.202;18.744;2022-12-29T22:49:56;39.08;;;24.55;;
70588;SDS011;58152;49.202;18.744;2022-12-29T22:52:25;30.95;;;21.30;;
70588;SDS011;58152;49.202;18.744;2022-12-29T22:54:55;31.38;;;21.60;;
70588;SDS011;58152;49.202;18.744;2022-12-29T22:57:21;34.15;;;21.20;;
70588;SDS011;58152;49.202;18.744;2022-12-29T22:59:50;33.30;;;22.05;;
70588;SDS011;58152;49.202;18.744;2022-12-29T23:02:16;29.05;;;19.83;;
70588;SDS011;58152;49.202;18.744;2022-12-29T23:04:54;32.72;;;21.52;;
70588;SDS011;58152;49.202;18.744;2022-12-29T23:17:46;37.83;;;23.77;;
70588;SDS011;58152;49.202;18.744;2022-12-29T23:23:44;36.40;;;23.65;;
70588;SDS011;58152;49.202;18.744;2022-12-29T23:43:42;34.63;;;23.30;;
70588;SDS011;58152;49.202;18.744;2022-12-29T23:46:08;38.58;;;23.35;;
70588;SDS011;58152;49.202;18.744;2022-12-29T23:48:36;37.67;;;23.75;;
70588;SDS011;58152;49.202;18.744;2022-12-29T23:51:03;34.20;;;23.33;;
70588;SDS011;58152;49.202;18.744;2022-12-29T23:53:32;37.28;;;25.02;;
70588;SDS011;58152;49.202;18.744;2022-12-29T23:55:59;42.63;;;27.02;;
70588;SDS011;58152;49.202;18.744;2022-12-29T23:58:25;39.67;;;24.27;;
